Time;durP1;ratioP1;P1;durP2;ratioP2;P2;SDS_P1;SDS_P2;PMS_P1;PMS_P2;Temp;Humidity;BMP_temperature;BMP_pressure;BME280_temperature;BME280_humidity;BME280_pressure;Samples;Min_cycle;Max_cycle;Signal;HPM_P1;HPM_P2
2021/12/30 00:00:20;;;;;;;;;;;19.40;55.70;;;;;;5035938;28;1131;-70
2021/12/30 00:02:46;;;;;;;;;;;19.30;55.70;;;;;;5035121;28;1170;-70
2021/12/30 00:05:12;;;;;;;;;;;19.30;55.70;;;;;;5035567;28;1311;-70
2021/12/30 00:07:37;;;;;;;;;;;19.30;55.70;;;;;;5034482;28;1362;-68
2021/12/30 00:10:03;;;;;;;;;;;19.30;55.70;;;;;;5035898;28;1075;-70
2021/12/30 00:12:28;;;;;;;;;;;19.30;55.80;;;;;;5035582;28;1963;-70
2021/12/30 00:14:54;;;;;;;;;;;19.30;55.80;;;;;;5034963;28;1268;-70
2021/12/30 00:17:19;;;;;;;;;;;19.30;55.80;;;;;;5035394;28;1330;-69
2021/12/30 00:19:45;;;;;;;;;;;19.30;55.80;;;;;;5035566;28;1225;-68
2021/12/30 00:22:10;;;;;;;;;;;19.30;55.90;;;;;;5035594;28;1043;-69
2021/12/30 00:24:35;;;;;;;;;;;19.30;55.90;;;;;;5033810;28;1295;-69
2021/12/30 00:27:01;;;;;;;;;;;19.20;55.90;;;;;;5035355;28;1151;-69
2021/12/30 00:29:27;;;;;;;;;;;19.20;55.90;;;;;;5035624;28;1367;-69
2021/12/30 00:31:52;;;;;;;;;;;19.20;55.90;;;;;;5034982;28;1953;-68
2021/12/30 00:34:18;;;;;;;;;;;19.20;56.00;;;;;;5036345;28;1385;-69
2021/12/30 00:36:43;;;;;;;;;;;19.20;56.00;;;;;;5040131;28;1186;-69
2021/12/30 00:39:09;;;;;;;;;;;19.20;56.00;;;;;;5040157;28;1382;-70
2021/12/30 00:41:34;;;;;;;;;;;19.20;56.00;;;;;;5046473;28;1335;-70
2021/12/30 00:44:00;;;;;;;;;;;19.20;56.00;;;;;;5045944;28;1390;-70
2021/12/30 00:46:26;;;;;;;;;;;19.20;56.10;;;;;;5045836;28;1378;-71
2021/12/30 00:48:51;;;;;;;;;;;19.20;56.10;;;;;;5041470;28;1262;-69
2021/12/30 00:51:17;;;;;;;;;;;19.20;56.10;;;;;;5042445;28;1939;-69
2021/12/30 00:53:42;;;;;;;;;;;19.20;56.10;;;;;;5043228;28;1374;-70
2021/12/30 00:56:08;;;;;;;;;;;19.20;56.10;;;;;;5044152;28;1130;-70
2021/12/30 00:58:33;;;;;;;;;;;19.20;56.10;;;;;;5043814;28;1256;-69
2021/12/30 01:00:59;;;;;;;;;;;19.20;56.10;;;;;;5047120;28;1079;-71
2021/12/30 01:03:24;;;;;;;;;;;19.10;56.10;;;;;;5040238;28;1259;-70
2021/12/30 01:05:50;;;;;;;;;;;19.10;56.20;;;;;;5038269;28;1348;-70
2021/12/30 01:08:15;;;;;;;;;;;19.10;56.20;;;;;;5040462;28;1271;-69
2021/12/30 01:10:41;;;;;;;;;;;19.10;56.20;;;;;;5039407;28;1957;-70
2021/12/30 01:13:10;;;;;;;;;;;19.10;56.20;;;;;;5040550;28;1333;-70
2021/12/30 01:15:47;;;;;;;;;;;19.10;56.20;;;;;;5040276;28;1361;-71
2021/12/30 01:21:14;;;;;;;;;;;19.10;56.20;;;;;;4981197;28;1319;-69
2021/12/30 01:23:41;;;;;;;;;;;19.10;56.30;;;;;;5024814;28;1299;-70
2021/12/30 01:26:07;;;;;;;;;;;19.10;56.90;;;;;;5033076;28;1293;-69
2021/12/30 01:28:32;;;;;;;;;;;19.10;56.30;;;;;;5033826;28;1273;-70
2021/12/30 01:30:58;;;;;;;;;;;19.10;56.30;;;;;;5032945;28;1906;-71
2021/12/30 01:33:23;;;;;;;;;;;19.00;56.30;;;;;;5032436;28;1450;-70
2021/12/30 01:35:49;;;;;;;;;;;19.00;56.50;;;;;;5032615;28;1115;-70
2021/12/30 01:38:16;;;;;;;;;;;19.00;56.30;;;;;;5032453;28;1315;-70
2021/12/30 01:40:42;;;;;;;;;;;19.00;56.30;;;;;;5033387;28;1126;-70
2021/12/30 01:43:08;;;;;;;;;;;19.00;56.40;;;;;;5032267;28;1348;-70
2021/12/30 01:45:33;;;;;;;;;;;19.00;56.40;;;;;;5033649;28;1319;-70
2021/12/30 01:47:59;;;;;;;;;;;19.00;56.40;;;;;;5034064;28;1378;-69
2021/12/30 01:50:24;;;;;;;;;;;19.00;56.40;;;;;;5033537;28;1906;-69
2021/12/30 01:52:49;;;;;;;;;;;19.00;56.40;;;;;;5031729;28;1338;-68
2021/12/30 01:55:15;;;;;;;;;;;19.00;56.40;;;;;;5033527;28;1203;-69
2021/12/30 01:57:41;;;;;;;;;;;19.00;56.50;;;;;;5032382;28;1261;-70
2021/12/30 02:00:07;;;;;;;;;;;19.00;56.40;;;;;;5033240;28;1078;-70
2021/12/30 02:02:32;;;;;;;;;;;19.00;56.50;;;;;;5033794;28;1217;-69
2021/12/30 02:04:58;;;;;;;;;;;19.00;56.50;;;;;;5032387;28;1572;-70
2021/12/30 02:07:23;;;;;;;;;;;19.00;56.50;;;;;;5032691;28;1115;-70
2021/12/30 02:09:50;;;;;;;;;;;19.00;56.50;;;;;;5031861;28;1108;-69
2021/12/30 02:12:15;;;;;;;;;;;19.00;56.50;;;;;;5032954;28;1902;-70
2021/12/30 02:14:40;;;;;;;;;;;19.00;56.50;;;;;;5033150;28;1351;-70
2021/12/30 02:17:06;;;;;;;;;;;19.00;56.50;;;;;;5031528;28;1182;-69
2021/12/30 02:19:31;;;;;;;;;;;19.00;56.50;;;;;;5032084;28;1068;-70
2021/12/30 02:21:57;;;;;;;;;;;19.00;56.60;;;;;;5033090;28;1355;-70
2021/12/30 02:24:22;;;;;;;;;;;18.90;56.50;;;;;;5032533;28;1221;-70
2021/12/30 02:26:48;;;;;;;;;;;19.00;56.60;;;;;;5032809;28;1083;-70
2021/12/30 02:29:13;;;;;;;;;;;18.90;56.50;;;;;;5033084;28;1300;-71
2021/12/30 02:31:40;;;;;;;;;;;18.90;56.50;;;;;;5032786;28;1910;-70
2021/12/30 02:34:05;;;;;;;;;;;18.90;56.60;;;;;;5031305;28;1359;-70
2021/12/30 02:36:32;;;;;;;;;;;18.90;56.60;;;;;;5032539;28;1362;-69
2021/12/30 02:38:57;;;;;;;;;;;19.00;56.60;;;;;;5031793;28;1258;-71
2021/12/30 02:41:23;;;;;;;;;;;19.00;56.50;;;;;;5032925;28;1298;-70
2021/12/30 02:43:49;;;;;;;;;;;19.00;56.50;;;;;;5032346;28;1295;-71
2021/12/30 02:46:14;;;;;;;;;;;19.10;56.50;;;;;;5031861;28;1425;-71
2021/12/30 02:48:41;;;;;;;;;;;19.10;56.40;;;;;;5031879;28;1361;-70
2021/12/30 02:51:08;;;;;;;;;;;19.20;56.20;;;;;;5031517;28;1906;-70
2021/12/30 02:53:34;;;;;;;;;;;19.30;56.10;;;;;;5030447;28;1387;-70
2021/12/30 02:55:59;;;;;;;;;;;19.40;56.00;;;;;;5031371;28;1434;-69
2021/12/30 02:58:25;;;;;;;;;;;19.50;55.70;;;;;;5032957;28;1450;-69
2021/12/30 03:00:55;;;;;;;;;;;19.70;55.60;;;;;;5030998;28;1401;-71
2021/12/30 03:03:21;;;;;;;;;;;19.80;55.30;;;;;;5031073;28;1716;-70
2021/12/30 03:05:47;;;;;;;;;;;19.90;55.00;;;;;;5031333;28;1505;-71
2021/12/30 03:08:13;;;;;;;;;;;20.00;54.70;;;;;;5031605;28;1190;-71
2021/12/30 03:10:38;;;;;;;;;;;20.20;54.60;;;;;;5032532;28;1970;-71
2021/12/30 03:13:04;;;;;;;;;;;20.30;54.30;;;;;;5030747;28;1673;-71
2021/12/30 03:15:32;;;;;;;;;;;20.40;54.10;;;;;;5031878;28;1459;-70
2021/12/30 03:17:57;;;;;;;;;;;20.40;53.80;;;;;;5032828;28;1459;-71
2021/12/30 03:20:22;;;;;;;;;;;20.50;54.10;;;;;;5032403;28;1185;-71
2021/12/30 03:22:48;;;;;;;;;;;20.60;53.40;;;;;;5031697;28;1427;-71
2021/12/30 03:25:14;;;;;;;;;;;20.60;53.20;;;;;;5031605;28;1445;-70
2021/12/30 03:27:39;;;;;;;;;;;20.70;53.10;;;;;;5004644;28;1325;-69
2021/12/30 03:30:05;;;;;;;;;;;20.80;52.90;;;;;;5024563;28;1560;-70
2021/12/30 03:32:31;;;;;;;;;;;20.80;52.80;;;;;;5029186;28;1966;-69
2021/12/30 03:34:56;;;;;;;;;;;20.90;53.30;;;;;;5031010;28;1365;-70
2021/12/30 03:37:21;;;;;;;;;;;20.90;52.60;;;;;;5032437;28;1183;-70
2021/12/30 03:39:48;;;;;;;;;;;20.90;52.50;;;;;;5031065;28;1466;-69
2021/12/30 03:42:14;;;;;;;;;;;21.00;52.50;;;;;;5032370;28;1435;-69
2021/12/30 03:44:39;;;;;;;;;;;21.00;52.40;;;;;;5029825;28;1711;-70
2021/12/30 03:47:06;;;;;;;;;;;21.00;52.40;;;;;;5023272;28;1260;-70
2021/12/30 03:49:31;;;;;;;;;;;21.00;52.40;;;;;;5012177;28;1286;-72
2021/12/30 03:51:57;;;;;;;;;;;21.10;52.40;;;;;;5030902;28;1910;-71
2021/12/30 03:54:22;;;;;;;;;;;21.10;52.40;;;;;;5030311;28;1646;-71
2021/12/30 03:56:48;;;;;;;;;;;21.10;52.40;;;;;;5031773;28;1278;-71
2021/12/30 03:59:14;;;;;;;;;;;21.10;52.40;;;;;;5032299;28;1312;-70
2021/12/30 04:01:39;;;;;;;;;;;21.10;52.40;;;;;;5023427;28;1232;-70
2021/12/30 04:04:04;;;;;;;;;;;21.10;52.30;;;;;;5026215;28;1372;-70
2021/12/30 04:06:30;;;;;;;;;;;21.10;52.30;;;;;;5030641;28;1091;-71
2021/12/30 04:08:56;;;;;;;;;;;21.10;52.30;;;;;;5031606;28;1063;-70
2021/12/30 04:11:22;;;;;;;;;;;21.10;52.40;;;;;;5030711;28;1961;-70
2021/12/30 04:13:48;;;;;;;;;;;21.10;52.40;;;;;;5030440;28;1217;-70
2021/12/30 04:16:13;;;;;;;;;;;21.10;52.40;;;;;;5031042;28;1107;-70
2021/12/30 04:18:39;;;;;;;;;;;21.00;52.40;;;;;;5032005;28;1126;-71
2021/12/30 04:21:04;;;;;;;;;;;21.00;52.40;;;;;;5030375;28;1394;-70
2021/12/30 04:23:30;;;;;;;;;;;21.00;52.40;;;;;;5031349;28;1263;-70
2021/12/30 04:25:55;;;;;;;;;;;21.00;52.50;;;;;;5031703;28;1063;-71
2021/12/30 04:28:20;;;;;;;;;;;21.00;52.50;;;;;;5034569;28;1082;-70
2021/12/30 04:30:46;;;;;;;;;;;21.00;52.60;;;;;;5034105;28;1898;-71
2021/12/30 04:33:11;;;;;;;;;;;20.90;52.60;;;;;;5035253;28;1266;-71
2021/12/30 04:35:37;;;;;;;;;;;20.90;52.60;;;;;;5034896;28;1256;-71
2021/12/30 04:38:02;;;;;;;;;;;20.90;52.70;;;;;;5035703;28;1083;-70
2021/12/30 04:40:28;;;;;;;;;;;20.90;52.80;;;;;;5034866;28;1099;-70
2021/12/30 04:42:53;;;;;;;;;;;20.90;52.80;;;;;;5033766;28;1578;-70
2021/12/30 04:45:19;;;;;;;;;;;20.80;52.80;;;;;;5035372;28;1218;-70
2021/12/30 04:47:44;;;;;;;;;;;20.90;52.90;;;;;;5035161;28;997;-70
2021/12/30 04:50:10;;;;;;;;;;;20.80;52.90;;;;;;5034739;28;1303;-70
2021/12/30 04:52:36;;;;;;;;;;;20.80;52.90;;;;;;5035080;28;1906;-70
2021/12/30 04:55:01;;;;;;;;;;;20.80;53.00;;;;;;5016348;28;1325;-71
2021/12/30 04:57:27;;;;;;;;;;;20.80;53.00;;;;;;5033973;28;1062;-71
2021/12/30 04:59:52;;;;;;;;;;;20.80;53.00;;;;;;5034998;28;1326;-71
2021/12/30 05:02:18;;;;;;;;;;;20.80;53.10;;;;;;5033496;28;1273;-70
2021/12/30 05:04:43;;;;;;;;;;;20.70;53.10;;;;;;5032775;28;1209;-71
2021/12/30 05:07:09;;;;;;;;;;;20.70;53.10;;;;;;5034543;28;1123;-70
2021/12/30 05:09:34;;;;;;;;;;;20.70;53.10;;;;;;5033774;28;1123;-70
2021/12/30 05:12:00;;;;;;;;;;;20.70;53.20;;;;;;5034783;28;1883;-71
2021/12/30 05:14:25;;;;;;;;;;;20.70;53.20;;;;;;5032914;28;1337;-71
2021/12/30 05:16:52;;;;;;;;;;;20.70;53.20;;;;;;5034660;28;1346;-70
2021/12/30 05:19:17;;;;;;;;;;;20.70;53.30;;;;;;5034356;28;1091;-71
2021/12/30 05:21:42;;;;;;;;;;;20.60;53.20;;;;;;5034549;28;1185;-70
2021/12/30 05:24:08;;;;;;;;;;;20.60;53.30;;;;;;5033948;28;1278;-70
2021/12/30 05:26:33;;;;;;;;;;;20.60;53.30;;;;;;5034903;28;1126;-71
2021/12/30 05:28:59;;;;;;;;;;;20.60;53.40;;;;;;5034455;28;1218;-70
2021/12/30 05:31:24;;;;;;;;;;;20.60;53.40;;;;;;5033425;28;1910;-70
2021/12/30 05:33:50;;;;;;;;;;;20.60;53.40;;;;;;5033568;28;1287;-70
2021/12/30 05:36:15;;;;;;;;;;;20.60;53.50;;;;;;5033082;28;1115;-70
2021/12/30 05:38:41;;;;;;;;;;;20.60;53.50;;;;;;5031782;28;1398;-70
2021/12/30 05:41:06;;;;;;;;;;;20.60;53.50;;;;;;5032302;28;1072;-70
2021/12/30 05:43:32;;;;;;;;;;;20.60;53.50;;;;;;5032341;28;1280;-70
2021/12/30 05:45:57;;;;;;;;;;;20.50;53.50;;;;;;5033008;28;1076;-70
2021/12/30 05:48:22;;;;;;;;;;;20.50;53.50;;;;;;5034090;28;1170;-70
2021/12/30 05:50:48;;;;;;;;;;;20.50;53.60;;;;;;5033817;28;1949;-70
2021/12/30 05:53:13;;;;;;;;;;;20.50;53.60;;;;;;5033410;28;1115;-71
2021/12/30 05:55:39;;;;;;;;;;;20.50;53.60;;;;;;5033764;28;1216;-71
2021/12/30 05:58:04;;;;;;;;;;;20.50;53.70;;;;;;5034054;28;1110;-70
2021/12/30 06:00:30;;;;;;;;;;;20.50;53.70;;;;;;5032350;28;1090;-70
2021/12/30 06:02:55;;;;;;;;;;;20.50;53.70;;;;;;5015591;28;1303;-70
2021/12/30 06:05:21;;;;;;;;;;;20.40;53.70;;;;;;5032355;28;1482;-70
2021/12/30 06:07:46;;;;;;;;;;;20.40;53.80;;;;;;5033421;28;1423;-71
2021/12/30 06:10:12;;;;;;;;;;;20.40;53.80;;;;;;5032556;28;1140;-70
2021/12/30 06:12:37;;;;;;;;;;;20.40;53.80;;;;;;5015849;28;1898;-71
2021/12/30 06:15:03;;;;;;;;;;;20.40;53.80;;;;;;5031733;28;1311;-70
2021/12/30 06:17:28;;;;;;;;;;;20.40;53.90;;;;;;5033275;28;1146;-70
2021/12/30 06:19:54;;;;;;;;;;;20.40;53.90;;;;;;5032921;28;1369;-71
2021/12/30 06:22:19;;;;;;;;;;;20.40;53.90;;;;;;5033174;28;1162;-71
2021/12/30 06:24:45;;;;;;;;;;;20.30;53.90;;;;;;5032845;28;1328;-71
2021/12/30 06:27:10;;;;;;;;;;;20.30;53.90;;;;;;5031646;28;1061;-70
2021/12/30 06:29:36;;;;;;;;;;;20.30;53.90;;;;;;5033698;28;1060;-71
2021/12/30 06:32:02;;;;;;;;;;;20.30;54.00;;;;;;5033837;28;1951;-72
2021/12/30 06:34:27;;;;;;;;;;;20.30;54.00;;;;;;5031658;28;1262;-71
2021/12/30 06:36:53;;;;;;;;;;;20.30;54.10;;;;;;5032751;28;1384;-71
2021/12/30 06:39:18;;;;;;;;;;;20.30;54.10;;;;;;5026972;28;1971;-71
2021/12/30 06:41:44;;;;;;;;;;;20.30;54.10;;;;;;5032461;28;1126;-71
2021/12/30 06:44:09;;;;;;;;;;;20.30;54.10;;;;;;5011412;28;1270;-71
2021/12/30 06:46:35;;;;;;;;;;;20.30;54.10;;;;;;5029706;28;1152;-70
2021/12/30 06:49:03;;;;;;;;;;;20.30;54.10;;;;;;5032578;28;1295;-71
2021/12/30 06:51:34;;;;;;;;;;;20.30;54.20;;;;;;5023233;28;1955;-69
2021/12/30 06:54:00;;;;;;;;;;;20.30;54.20;;;;;;5030239;28;1306;-72
2021/12/30 06:56:25;;;;;;;;;;;20.30;54.20;;;;;;5031308;28;1297;-67
2021/12/30 06:58:51;;;;;;;;;;;20.30;54.30;;;;;;5030810;28;1295;-68
2021/12/30 07:01:16;;;;;;;;;;;20.20;54.20;;;;;;5026017;28;1298;-71
2021/12/30 07:03:42;;;;;;;;;;;20.20;54.30;;;;;;5022005;28;1391;-70
2021/12/30 07:06:08;;;;;;;;;;;20.20;54.30;;;;;;5031117;28;1107;-70
2021/12/30 07:08:33;;;;;;;;;;;20.20;54.30;;;;;;5030182;28;1360;-70
2021/12/30 07:10:58;;;;;;;;;;;20.20;54.30;;;;;;5031055;28;1921;-71
2021/12/30 07:13:24;;;;;;;;;;;20.20;54.30;;;;;;5031201;28;1393;-73
2021/12/30 07:15:49;;;;;;;;;;;20.20;54.30;;;;;;5030071;28;1100;-74
2021/12/30 07:18:15;;;;;;;;;;;20.20;54.30;;;;;;5031048;28;1071;-73
2021/12/30 07:20:40;;;;;;;;;;;20.20;54.30;;;;;;5029563;28;1525;-73
2021/12/30 07:23:05;;;;;;;;;;;20.10;54.40;;;;;;5030572;28;1341;-68
2021/12/30 07:25:31;;;;;;;;;;;20.10;54.40;;;;;;5031224;28;1302;-68
2021/12/30 07:27:56;;;;;;;;;;;20.10;54.40;;;;;;5030199;28;1381;-67
2021/12/30 07:30:22;;;;;;;;;;;20.10;54.40;;;;;;5031309;28;1947;-67
2021/12/30 07:32:48;;;;;;;;;;;20.10;54.40;;;;;;5029549;28;1283;-71
2021/12/30 07:35:14;;;;;;;;;;;20.10;54.50;;;;;;5031228;28;1354;-71
2021/12/30 07:37:39;;;;;;;;;;;20.10;54.50;;;;;;5030401;28;1100;-69
2021/12/30 07:40:05;;;;;;;;;;;20.10;54.50;;;;;;5030600;28;1517;-68
2021/12/30 07:42:30;;;;;;;;;;;20.10;54.50;;;;;;5030946;28;1518;-67
2021/12/30 07:44:56;;;;;;;;;;;20.10;54.50;;;;;;5030647;28;1302;-71
2021/12/30 07:47:21;;;;;;;;;;;20.10;54.50;;;;;;5031318;28;1423;-71
2021/12/30 07:49:46;;;;;;;;;;;20.10;54.50;;;;;;5030110;28;1295;-71
2021/12/30 07:52:12;;;;;;;;;;;20.20;54.40;;;;;;5029997;28;1914;-69
2021/12/30 07:54:37;;;;;;;;;;;20.30;54.30;;;;;;5014274;28;1318;-69
2021/12/30 07:57:03;;;;;;;;;;;20.30;54.20;;;;;;5033860;28;1419;-71
2021/12/30 07:59:28;;;;;;;;;;;20.40;54.10;;;;;;5033519;28;1356;-71
2021/12/30 08:01:54;;;;;;;;;;;20.50;54.00;;;;;;5034716;28;1189;-71
2021/12/30 08:04:19;;;;;;;;;;;20.60;53.80;;;;;;5035521;28;1241;-70
2021/12/30 08:06:45;;;;;;;;;;;20.60;53.70;;;;;;5035726;28;1099;-71
2021/12/30 08:09:10;;;;;;;;;;;20.70;53.50;;;;;;5035914;28;1350;-71
2021/12/30 08:11:36;;;;;;;;;;;20.70;53.30;;;;;;5035867;28;1969;-71
2021/12/30 08:14:01;;;;;;;;;;;20.80;53.20;;;;;;5034936;28;1393;-71
2021/12/30 08:16:27;;;;;;;;;;;20.90;53.10;;;;;;5035950;28;1322;-71
2021/12/30 08:18:52;;;;;;;;;;;20.90;53.00;;;;;;5035556;28;1020;-70
2021/12/30 08:21:19;;;;;;;;;;;21.00;53.00;;;;;;5035460;28;1334;-71
2021/12/30 08:23:45;;;;;;;;;;;21.00;52.90;;;;;;5035003;28;1302;-71
2021/12/30 08:26:11;;;;;;;;;;;21.00;52.80;;;;;;5035541;28;1314;-71
2021/12/30 08:28:36;;;;;;;;;;;21.00;52.80;;;;;;5035546;28;1183;-71
2021/12/30 08:31:01;;;;;;;;;;;21.10;52.70;;;;;;5033931;28;1898;-71
2021/12/30 08:33:27;;;;;;;;;;;21.10;52.60;;;;;;5033133;28;1281;-70
2021/12/30 08:35:52;;;;;;;;;;;21.10;52.60;;;;;;5033955;28;1381;-71
2021/12/30 08:38:19;;;;;;;;;;;21.10;52.60;;;;;;5035578;28;1084;-70
2021/12/30 08:40:47;;;;;;;;;;;21.10;52.60;;;;;;5037617;28;1067;-70
2021/12/30 08:43:13;;;;;;;;;;;21.10;52.60;;;;;;5035526;28;1159;-70
2021/12/30 08:45:39;;;;;;;;;;;21.10;52.60;;;;;;5037554;28;1244;-70
2021/12/30 08:48:04;;;;;;;;;;;21.10;52.60;;;;;;5035854;28;1325;-70
2021/12/30 08:50:30;;;;;;;;;;;21.10;52.70;;;;;;5019499;28;2238;-70
2021/12/30 08:52:55;;;;;;;;;;;21.00;52.70;;;;;;5036516;28;1177;-70
2021/12/30 08:55:21;;;;;;;;;;;21.00;52.70;;;;;;5037654;28;1283;-70
2021/12/30 08:57:47;;;;;;;;;;;21.00;52.80;;;;;;5037143;28;1002;-70
2021/12/30 09:00:17;;;;;;;;;;;21.00;52.80;;;;;;5037155;28;1051;-70
2021/12/30 09:02:42;;;;;;;;;;;21.00;52.80;;;;;;5035545;28;1154;-70
2021/12/30 09:05:08;;;;;;;;;;;21.00;52.80;;;;;;5035467;28;1277;-70
2021/12/30 09:07:33;;;;;;;;;;;21.00;52.90;;;;;;5035920;28;1287;-70
2021/12/30 09:09:59;;;;;;;;;;;21.00;52.90;;;;;;5036421;28;1091;-70
2021/12/30 09:12:24;;;;;;;;;;;21.00;52.90;;;;;;5036274;28;1906;-70
2021/12/30 09:14:50;;;;;;;;;;;21.00;53.00;;;;;;5026255;28;1209;-70
2021/12/30 09:17:15;;;;;;;;;;;20.90;53.00;;;;;;5014524;28;1375;-70
2021/12/30 09:19:41;;;;;;;;;;;20.90;53.00;;;;;;5035014;28;1012;-70
2021/12/30 09:22:06;;;;;;;;;;;20.90;53.00;;;;;;5035683;28;1064;-70
2021/12/30 09:24:32;;;;;;;;;;;20.90;53.00;;;;;;5035559;28;1325;-70
2021/12/30 09:26:57;;;;;;;;;;;20.90;53.10;;;;;;5034150;28;1316;-70
2021/12/30 09:29:22;;;;;;;;;;;20.90;53.10;;;;;;5034239;28;1151;-70
2021/12/30 09:31:48;;;;;;;;;;;20.90;53.20;;;;;;5033897;28;1962;-69
2021/12/30 09:34:14;;;;;;;;;;;20.80;53.20;;;;;;5033455;28;1326;-69
2021/12/30 09:36:39;;;;;;;;;;;20.80;53.20;;;;;;5032568;28;1119;-70
2021/12/30 09:39:12;;;;;;;;;;;20.80;53.20;;;;;;5033069;28;1374;-70
2021/12/30 09:41:39;;;;;;;;;;;20.80;53.30;;;;;;5033813;28;1334;-70
2021/12/30 09:44:05;;;;;;;;;;;20.80;53.30;;;;;;5032188;28;1284;-70
2021/12/30 09:46:30;;;;;;;;;;;20.80;53.30;;;;;;5032907;28;1111;-70
2021/12/30 09:48:56;;;;;;;;;;;20.80;53.40;;;;;;5032748;28;1279;-70
2021/12/30 09:51:21;;;;;;;;;;;20.80;53.40;;;;;;5033773;28;1910;-69
2021/12/30 09:53:53;;;;;;;;;;;20.80;53.40;;;;;;5033284;28;1339;-70
2021/12/30 09:56:18;;;;;;;;;;;20.80;53.40;;;;;;5033526;28;1127;-70
2021/12/30 09:58:44;;;;;;;;;;;20.80;53.30;;;;;;5025178;28;1062;-70
2021/12/30 10:01:09;;;;;;;;;;;20.80;53.40;;;;;;5027935;28;1367;-68
2021/12/30 10:03:35;;;;;;;;;;;20.90;53.30;;;;;;5023770;28;1362;-68
2021/12/30 10:06:04;;;;;;;;;;;20.80;51.30;;;;;;5031955;28;1358;-68
2021/12/30 10:08:30;;;;;;;;;;;20.80;50.30;;;;;;5032301;28;1118;-68
2021/12/30 10:10:56;;;;;;;;;;;20.70;49.80;;;;;;5033389;28;1957;-68
2021/12/30 10:13:26;;;;;;;;;;;20.70;49.30;;;;;;5031512;28;1261;-68
2021/12/30 10:15:53;;;;;;;;;;;20.60;49.50;;;;;;5031113;28;1414;-69
2021/12/30 10:18:18;;;;;;;;;;;20.60;50.10;;;;;;5030735;28;1311;-69
2021/12/30 10:20:44;;;;;;;;;;;20.50;50.40;;;;;;5031221;28;1107;-69
2021/12/30 10:23:09;;;;;;;;;;;20.60;50.50;;;;;;5030733;28;1076;-69
2021/12/30 10:25:36;;;;;;;;;;;20.60;50.70;;;;;;5031405;28;1182;-69
2021/12/30 10:28:15;;;;;;;;;;;20.60;50.80;;;;;;5031588;28;1350;-69
2021/12/30 10:30:41;;;;;;;;;;;20.70;50.90;;;;;;5030850;28;1956;-69
2021/12/30 10:33:10;;;;;;;;;;;20.70;51.00;;;;;;5030323;28;1052;-69
2021/12/30 10:35:36;;;;;;;;;;;20.80;51.10;;;;;;5030954;28;1193;-69
2021/12/30 10:38:02;;;;;;;;;;;20.80;51.10;;;;;;5030468;28;1285;-69
2021/12/30 10:40:29;;;;;;;;;;;20.90;51.10;;;;;;5033169;28;1072;-69
2021/12/30 10:43:13;;;;;;;;;;;20.90;51.10;;;;;;5031385;28;1028;-69
2021/12/30 10:45:38;;;;;;;;;;;21.00;51.10;;;;;;5030331;28;1751;-69
2021/12/30 10:48:03;;;;;;;;;;;21.00;51.10;;;;;;5030798;28;1139;-69
2021/12/30 10:50:29;;;;;;;;;;;21.10;51.10;;;;;;5031612;28;1938;-69
2021/12/30 10:52:55;;;;;;;;;;;21.10;51.10;;;;;;5030527;28;1062;-69
2021/12/30 10:55:20;;;;;;;;;;;21.10;51.00;;;;;;5032702;28;1332;-69
2021/12/30 10:57:46;;;;;;;;;;;21.10;51.00;;;;;;5031254;28;1108;-70
2021/12/30 11:00:30;;;;;;;;;;;21.20;51.10;;;;;;5032821;28;1083;-70
2021/12/30 11:02:56;;;;;;;;;;;21.20;51.10;;;;;;5025279;28;1458;-70
2021/12/30 11:05:21;;;;;;;;;;;21.20;51.10;;;;;;5031241;28;1264;-71
2021/12/30 11:07:53;;;;;;;;;;;21.20;51.00;;;;;;5032084;28;1326;-71
2021/12/30 11:10:31;;;;;;;;;;;21.20;51.00;;;;;;5032622;28;1079;-70
2021/12/30 11:13:07;;;;;;;;;;;21.20;51.10;;;;;;5032116;28;1261;-70
2021/12/30 11:15:33;;;;;;;;;;;21.20;51.10;;;;;;5031077;28;1256;-71
2021/12/30 11:18:08;;;;;;;;;;;21.20;51.20;;;;;;5014556;28;1173;-72
2021/12/30 11:20:40;;;;;;;;;;;21.20;51.20;;;;;;5032286;28;1044;-71
2021/12/30 11:23:06;;;;;;;;;;;21.20;51.20;;;;;;5031922;28;1060;-72
2021/12/30 11:25:31;;;;;;;;;;;21.20;51.30;;;;;;5031243;28;1201;-71
2021/12/30 11:27:57;;;;;;;;;;;21.20;51.40;;;;;;5031069;28;1131;-71
2021/12/30 11:30:22;;;;;;;;;;;21.10;51.40;;;;;;5031955;28;1388;-71
2021/12/30 11:32:48;;;;;;;;;;;21.20;51.50;;;;;;5027008;28;1957;-71
2021/12/30 11:35:14;;;;;;;;;;;21.10;51.50;;;;;;5025443;28;1820;-70
2021/12/30 11:37:39;;;;;;;;;;;21.10;51.60;;;;;;5025259;28;1028;-71
2021/12/30 11:40:06;;;;;;;;;;;21.10;51.60;;;;;;5034018;28;1064;-71
2021/12/30 11:42:37;;;;;;;;;;;21.10;51.70;;;;;;5034208;28;1231;-70
2021/12/30 11:45:03;;;;;;;;;;;21.10;51.70;;;;;;5034254;28;1383;-72
2021/12/30 11:47:32;;;;;;;;;;;21.10;51.80;;;;;;5034828;28;1274;-72
2021/12/30 11:49:58;;;;;;;;;;;21.10;51.80;;;;;;5036726;28;1162;-72
2021/12/30 11:52:43;;;;;;;;;;;21.10;51.90;;;;;;5034975;28;1914;-72
2021/12/30 11:55:27;;;;;;;;;;;21.00;51.90;;;;;;5035973;28;1223;-72
2021/12/30 11:57:52;;;;;;;;;;;21.00;52.00;;;;;;5035598;28;1312;-73
2021/12/30 12:00:36;;;;;;;;;;;21.00;52.00;;;;;;5032918;28;2039;-71
2021/12/30 12:03:02;;;;;;;;;;;21.00;52.00;;;;;;5034030;28;1317;-72
2021/12/30 12:05:41;;;;;;;;;;;21.00;52.10;;;;;;5034818;28;1321;-71
2021/12/30 12:08:10;;;;;;;;;;;21.00;52.20;;;;;;5035114;28;1068;-73
2021/12/30 12:10:36;;;;;;;;;;;20.90;52.20;;;;;;5034521;28;1973;-71
2021/12/30 12:13:20;;;;;;;;;;;20.90;52.20;;;;;;5035245;28;1075;-72
2021/12/30 12:15:45;;;;;;;;;;;21.00;52.30;;;;;;5031457;28;1103;-71
2021/12/30 12:18:11;;;;;;;;;;;21.00;52.30;;;;;;5026601;28;1099;-72
2021/12/30 12:20:37;;;;;;;;;;;21.00;52.30;;;;;;5034577;28;1288;-72
2021/12/30 12:23:22;;;;;;;;;;;21.00;52.30;;;;;;5033747;28;1484;-72
2021/12/30 12:25:55;;;;;;;;;;;21.00;52.30;;;;;;5035702;28;1063;-71
2021/12/30 12:28:20;;;;;;;;;;;21.00;52.30;;;;;;5033821;28;1230;-71
2021/12/30 12:30:50;;;;;;;;;;;21.00;52.30;;;;;;5035305;28;1898;-72
2021/12/30 12:33:22;;;;;;;;;;;21.00;52.30;;;;;;5016871;28;1233;-71
2021/12/30 12:35:47;;;;;;;;;;;21.00;52.30;;;;;;5034745;28;974;-71
2021/12/30 12:38:13;;;;;;;;;;;21.00;52.30;;;;;;5033483;28;1087;-71
2021/12/30 12:40:39;;;;;;;;;;;21.00;52.30;;;;;;5034292;28;1142;-71
2021/12/30 12:43:09;;;;;;;;;;;21.00;52.30;;;;;;5033075;28;1463;-71
2021/12/30 12:45:35;;;;;;;;;;;21.00;52.30;;;;;;5033697;28;1284;-71
2021/12/30 12:48:16;;;;;;;;;;;21.00;52.30;;;;;;5033246;28;972;-70
2021/12/30 12:51:01;;;;;;;;;;;21.00;52.30;;;;;;5034769;28;1914;-70
2021/12/30 12:53:26;;;;;;;;;;;21.00;52.30;;;;;;5034558;28;1311;-72
2021/12/30 12:55:52;;;;;;;;;;;21.00;52.30;;;;;;5035278;28;1063;-71
2021/12/30 12:58:20;;;;;;;;;;;21.00;52.30;;;;;;5035098;28;1114;-71
2021/12/30 13:00:46;;;;;;;;;;;21.00;52.40;;;;;;5032289;28;1045;-70
2021/12/30 13:03:13;;;;;;;;;;;21.00;52.40;;;;;;5020938;28;1096;-71
2021/12/30 13:05:50;;;;;;;;;;;21.00;52.40;;;;;;5033640;28;1304;-71
2021/12/30 13:08:16;;;;;;;;;;;21.00;52.50;;;;;;5033198;28;1346;-71
2021/12/30 13:10:41;;;;;;;;;;;21.00;52.50;;;;;;5034678;28;1910;-71
2021/12/30 13:13:06;;;;;;;;;;;21.00;52.50;;;;;;5033918;28;1115;-71
2021/12/30 13:15:37;;;;;;;;;;;21.00;52.60;;;;;;5034878;28;1390;-71
2021/12/30 13:18:12;;;;;;;;;;;20.90;52.60;;;;;;5034975;28;1044;-71
2021/12/30 13:20:37;;;;;;;;;;;20.90;52.60;;;;;;5032968;28;1064;-71
2021/12/30 13:23:03;;;;;;;;;;;20.90;52.60;;;;;;5034082;28;1445;-71
2021/12/30 13:25:28;;;;;;;;;;;20.90;52.70;;;;;;5032848;28;1215;-71
2021/12/30 13:27:54;;;;;;;;;;;20.80;52.60;;;;;;5034756;28;1040;-71
2021/12/30 13:30:20;;;;;;;;;;;20.90;52.80;;;;;;5034386;28;1354;-71
2021/12/30 13:32:47;;;;;;;;;;;20.90;52.80;;;;;;5033975;28;1894;-71
2021/12/30 13:35:14;;;;;;;;;;;20.80;52.80;;;;;;5032492;28;1275;-70
2021/12/30 13:37:40;;;;;;;;;;;20.80;52.80;;;;;;5034009;28;1052;-70
2021/12/30 13:40:12;;;;;;;;;;;20.80;52.90;;;;;;5034268;28;1103;-70
2021/12/30 13:42:37;;;;;;;;;;;20.80;52.90;;;;;;5034139;28;1064;-70
2021/12/30 13:45:03;;;;;;;;;;;20.80;52.90;;;;;;5024614;28;1691;-73
2021/12/30 13:47:38;;;;;;;;;;;20.80;52.90;;;;;;5027520;28;1056;-69
2021/12/30 13:50:05;;;;;;;;;;;20.80;53.00;;;;;;5032000;28;1028;-69
2021/12/30 13:52:32;;;;;;;;;;;20.80;53.00;;;;;;5031757;28;1957;-69
2021/12/30 13:55:07;;;;;;;;;;;20.80;53.00;;;;;;5031133;28;1283;-70
2021/12/30 13:57:32;;;;;;;;;;;20.80;53.00;;;;;;5032666;28;1348;-70
2021/12/30 13:59:58;;;;;;;;;;;20.80;53.00;;;;;;5029391;28;1056;-70
2021/12/30 14:02:24;;;;;;;;;;;20.80;52.90;;;;;;5017453;28;1289;-70
2021/12/30 14:04:49;;;;;;;;;;;20.80;53.00;;;;;;5032291;28;1288;-71
2021/12/30 14:07:18;;;;;;;;;;;20.70;52.90;;;;;;5032537;28;1276;-71
2021/12/30 14:09:53;;;;;;;;;;;20.80;53.00;;;;;;5032616;28;1130;-71
2021/12/30 14:12:18;;;;;;;;;;;20.80;53.00;;;;;;5031967;28;1895;-70
2021/12/30 14:14:45;;;;;;;;;;;20.70;52.90;;;;;;5031888;28;1618;-69
2021/12/30 14:17:11;;;;;;;;;;;20.80;53.00;;;;;;5032220;28;1322;-69
2021/12/30 14:19:37;;;;;;;;;;;20.70;53.00;;;;;;5031258;28;1414;-70
2021/12/30 14:22:03;;;;;;;;;;;20.70;53.00;;;;;;5032152;28;1186;-70
2021/12/30 14:24:29;;;;;;;;;;;20.70;53.10;;;;;;5029766;28;1862;-69
2021/12/30 14:26:54;;;;;;;;;;;20.70;53.10;;;;;;5029449;28;989;-70
2021/12/30 14:29:20;;;;;;;;;;;20.70;53.10;;;;;;5032162;28;1110;-70